createdAt,value
2023-03-07T00:01:29.474Z,95068.13
2023-03-07T00:03:56.584Z,95062.59
2023-03-07T00:06:23.178Z,95070.19
2023-03-07T00:08:50.985Z,95079.03
2023-03-07T00:11:17.610Z,95067.97
2023-03-07T00:13:44.148Z,95069.66
2023-03-07T00:16:12.230Z,95068.28
2023-03-07T00:18:39.184Z,95063.19
2023-03-07T00:21:06.946Z,95064.16
2023-03-07T00:23:34.309Z,95066.41
2023-03-07T00:26:02.475Z,95072.28
2023-03-07T00:28:29.010Z,95081.94
2023-03-07T00:30:55.890Z,95088.06
2023-03-07T00:33:22.408Z,95079.03
2023-03-07T00:35:56.030Z,95071.66
2023-03-07T00:38:22.749Z,95061.13
2023-03-07T00:40:56.236Z,95058.38
2023-03-07T00:43:22.728Z,95052.28
2023-03-07T00:45:49.272Z,95050.63
2023-03-07T00:48:15.797Z,95056.72
2023-03-07T00:50:42.298Z,95053.88
2023-03-07T00:53:09.020Z,95049.03
2023-03-07T00:55:35.646Z,95049.25
2023-03-07T00:58:02.316Z,95039.84
2023-03-07T01:04:27.629Z,95042.34
2023-03-07T01:06:54.215Z,95034.28
2023-03-07T01:09:20.773Z,95038.88
2023-03-07T01:11:49.322Z,95034.59
2023-03-07T01:14:15.792Z,95038.88
2023-03-07T01:16:42.368Z,95044.44
2023-03-07T01:19:12.529Z,95040.47
2023-03-07T01:21:40.165Z,95030.63
2023-03-07T01:24:08.146Z,95038.19
2023-03-07T01:26:35.214Z,95031.00
2023-03-07T01:29:03.422Z,95033.63
2023-03-07T01:31:32.906Z,95020.78
2023-03-07T01:33:59.955Z,95024.97
2023-03-07T01:36:30.621Z,95015.44
2023-03-07T01:38:58.559Z,95020.00
2023-03-07T01:41:25.298Z,95014.44
2023-03-07T01:43:51.849Z,95013.63
2023-03-07T01:46:18.468Z,95007.41
2023-03-07T01:48:47.000Z,95008.78
2023-03-07T01:51:13.592Z,95016.81
2023-03-07T01:53:40.617Z,95011.81
2023-03-07T01:56:08.057Z,95009.19
2023-03-07T01:58:36.739Z,94998.03
2023-03-07T02:01:03.417Z,94999.38
2023-03-07T02:03:33.756Z,94996.28
2023-03-07T02:06:02.593Z,94993.16
2023-03-07T02:08:30.809Z,94994.78
2023-03-07T02:10:57.323Z,94995.16
2023-03-07T02:13:23.856Z,94995.69
2023-03-07T02:15:51.279Z,94995.69
2023-03-07T02:18:24.297Z,95000.13
2023-03-07T02:21:09.706Z,94989.25
2023-03-07T02:23:56.460Z,94987.13
2023-03-07T02:26:26.920Z,94990.75
2023-03-07T02:28:54.317Z,94990.59
2023-03-07T02:31:20.910Z,94989.59
2023-03-07T02:33:47.458Z,94990.06
2023-03-07T02:36:18.943Z,94993.16
2023-03-07T02:38:47.556Z,94994.13
2023-03-07T02:41:15.658Z,94991.88
2023-03-07T02:43:42.191Z,94992.38
2023-03-07T02:46:08.951Z,94990.88
2023-03-07T02:48:35.505Z,94987.28
2023-03-07T02:51:02.061Z,94994.34
2023-03-07T02:53:28.609Z,94993.50
2023-03-07T02:55:55.109Z,94995.25
2023-03-07T02:58:21.734Z,94997.88
2023-03-07T03:00:48.245Z,94996.59
2023-03-07T03:03:14.832Z,94987.28
2023-03-07T03:05:41.513Z,94993.88
2023-03-07T03:08:08.011Z,94988.31
2023-03-07T03:10:34.565Z,94989.00
2023-03-07T03:13:01.263Z,94985.56
2023-03-07T03:15:27.837Z,94991.63
2023-03-07T03:17:54.457Z,94987.06
2023-03-07T03:20:21.018Z,94993.31
2023-03-07T03:22:47.553Z,94990.94
2023-03-07T03:25:14.682Z,94996.50
2023-03-07T03:27:42.034Z,94993.50
2023-03-07T03:30:09.848Z,94994.50
2023-03-07T03:32:39.754Z,94992.38
2023-03-07T03:35:06.741Z,94986.53
2023-03-07T03:37:33.684Z,94979.03
2023-03-07T03:40:00.383Z,94982.16
2023-03-07T03:42:26.965Z,94980.97
2023-03-07T03:44:53.605Z,94989.00
2023-03-07T03:47:20.117Z,94979.47
2023-03-07T03:49:46.674Z,94982.72
2023-03-07T03:52:13.254Z,94983.84
2023-03-07T03:54:39.745Z,94988.94
2023-03-07T03:57:06.343Z,94981.03
2023-03-07T03:59:32.851Z,94980.75
2023-03-07T04:01:59.770Z,94977.97
2023-03-07T04:04:26.319Z,94978.50
2023-03-07T04:06:52.977Z,94979.31
2023-03-07T04:09:19.468Z,94983.75
2023-03-07T04:11:46.032Z,94985.69
2023-03-07T04:14:12.569Z,94981.81
2023-03-07T04:16:39.192Z,94984.94
2023-03-07T04:19:05.970Z,94976.91
2023-03-07T04:21:32.475Z,94979.53
2023-03-07T04:23:59.113Z,94983.59
2023-03-07T04:26:25.985Z,94979.47
2023-03-07T04:28:52.532Z,94982.78
2023-03-07T04:31:20.845Z,94986.84
2023-03-07T04:33:47.866Z,94985.50
2023-03-07T04:36:16.340Z,94985.78
2023-03-07T04:38:42.972Z,94992.53
2023-03-07T04:41:13.844Z,94989.75
2023-03-07T04:43:40.513Z,94992.22
2023-03-07T04:46:07.132Z,94990.13
2023-03-07T04:48:33.673Z,94989.97
2023-03-07T04:51:00.168Z,94990.94
2023-03-07T04:53:26.784Z,94989.47
2023-03-07T04:56:00.258Z,94987.44
2023-03-07T04:58:27.411Z,94991.56
2023-03-07T05:00:54.411Z,94994.44
2023-03-07T05:03:20.955Z,94989.16
2023-03-07T05:05:47.488Z,94987.66
2023-03-07T05:08:14.065Z,94992.59
2023-03-07T05:13:20.004Z,94987.56
2023-03-07T05:15:50.764Z,94989.09
2023-03-07T05:18:17.291Z,94984.50
2023-03-07T05:20:43.875Z,94983.97
2023-03-07T05:23:10.399Z,94984.13
2023-03-07T05:25:36.920Z,94982.16
2023-03-07T05:28:03.509Z,94990.94
2023-03-07T05:30:30.042Z,94993.56
2023-03-07T05:32:56.557Z,94990.66
2023-03-07T05:35:25.110Z,94991.47
2023-03-07T05:37:52.352Z,94988.69
2023-03-07T05:40:19.096Z,94982.63
2023-03-07T05:43:45.286Z,94985.78
2023-03-07T05:46:11.854Z,94986.75
2023-03-07T05:48:38.376Z,94984.94
2023-03-07T05:51:05.256Z,94983.16
2023-03-07T05:53:31.826Z,94974.97
2023-03-07T05:55:58.380Z,94976.63
2023-03-07T05:58:24.927Z,94980.06
2023-03-07T06:00:51.457Z,94986.44
2023-03-07T06:03:18.036Z,94992.84
2023-03-07T06:05:44.524Z,94988.19
2023-03-07T06:08:11.136Z,94987.66
2023-03-07T06:10:40.211Z,94986.38
2023-03-07T06:13:06.770Z,94984.94
2023-03-07T06:15:33.295Z,94985.63
2023-03-07T06:17:59.832Z,94983.50
2023-03-07T06:20:26.397Z,94982.53
2023-03-07T06:22:53.122Z,94984.50
2023-03-07T06:25:21.805Z,94987.44
2023-03-07T06:27:48.939Z,94981.50
2023-03-07T06:30:15.516Z,94987.88
2023-03-07T06:32:42.078Z,94993.47
2023-03-07T06:35:08.882Z,94994.56
2023-03-07T06:37:35.408Z,94995.16
2023-03-07T06:40:06.305Z,94999.84
2023-03-07T06:42:32.898Z,95003.13
2023-03-07T06:44:59.448Z,95006.44
2023-03-07T06:47:25.942Z,94999.75
2023-03-07T06:49:52.454Z,95000.28
2023-03-07T06:53:57.101Z,94999.59
2023-03-07T06:56:23.628Z,95000.56
2023-03-07T06:58:50.143Z,95004.88
2023-03-07T07:01:20.877Z,95003.19
2023-03-07T07:03:47.415Z,95004.19
2023-03-07T07:06:13.922Z,95012.09
2023-03-07T07:08:40.490Z,95013.56
2023-03-07T07:11:06.972Z,95009.69
2023-03-07T07:13:33.508Z,95009.53
2023-03-07T07:16:06.638Z,95014.34
2023-03-07T07:18:33.770Z,95019.44
2023-03-07T07:21:00.268Z,95016.53
2023-03-07T07:23:27.289Z,95014.56
2023-03-07T07:25:53.785Z,95016.22
2023-03-07T07:28:20.446Z,95021.63
2023-03-07T07:30:46.939Z,95020.13
2023-03-07T07:33:13.600Z,95021.09
2023-03-07T07:35:42.531Z,95017.56
2023-03-07T07:38:09.236Z,95019.88
2023-03-07T07:40:35.728Z,95020.84
2023-03-07T07:43:02.256Z,95026.28
2023-03-07T07:45:28.818Z,95016.00
2023-03-07T07:47:55.391Z,95025.22
2023-03-07T07:50:22.596Z,95020.63
2023-03-07T07:52:49.292Z,95020.50
2023-03-07T07:55:15.905Z,95016.06
2023-03-07T07:57:42.556Z,95026.91
2023-03-07T08:00:10.194Z,95020.19
2023-03-07T08:02:37.161Z,95015.91
2023-03-07T08:05:06.685Z,95018.38
2023-03-07T08:07:33.185Z,95012.69
2023-03-07T08:09:59.690Z,95014.00
2023-03-07T08:12:27.906Z,95012.06
2023-03-07T08:14:54.555Z,95015.28
2023-03-07T08:17:21.108Z,95022.16
2023-03-07T08:19:47.601Z,95018.00
2023-03-07T08:22:14.185Z,95018.28
2023-03-07T08:24:41.239Z,95020.94
2023-03-07T08:27:08.159Z,95018.16
2023-03-07T08:29:35.393Z,95014.69
2023-03-07T08:32:01.939Z,95013.34
2023-03-07T08:34:28.481Z,95018.28
2023-03-07T08:36:55.012Z,95013.03
2023-03-07T08:39:21.545Z,95011.41
2023-03-07T08:41:48.145Z,95009.44
2023-03-07T08:44:14.662Z,95013.50
2023-03-07T08:46:41.173Z,95011.03
2023-03-07T08:49:07.700Z,95014.31
2023-03-07T08:51:35.062Z,95013.03
2023-03-07T08:54:01.726Z,95008.31
2023-03-07T08:56:28.233Z,95010.28
2023-03-07T08:58:54.941Z,95010.28
2023-03-07T09:01:21.542Z,95012.59
2023-03-07T09:03:48.121Z,95022.97
2023-03-07T09:08:58.550Z,95007.00
2023-03-07T09:11:26.670Z,95007.22
2023-03-07T09:13:53.443Z,95008.88
2023-03-07T09:16:20.622Z,95014.81
2023-03-07T09:18:47.200Z,95011.22
2023-03-07T09:21:13.849Z,95005.63
2023-03-07T09:23:40.389Z,95007.91
2023-03-07T09:26:07.025Z,95013.25
2023-03-07T09:28:33.550Z,95020.91
2023-03-07T09:31:00.205Z,95011.91
2023-03-07T09:33:26.718Z,95008.22
2023-03-07T09:35:53.278Z,95010.78
2023-03-07T09:38:59.102Z,95006.84
2023-03-07T09:41:34.762Z,95005.81
2023-03-07T09:44:01.260Z,95005.28
2023-03-07T09:46:40.161Z,95015.31
2023-03-07T09:49:06.656Z,95008.09
2023-03-07T09:51:40.151Z,95001.16
2023-03-07T09:54:11.693Z,95000.56
2023-03-07T09:56:41.217Z,94989.44
2023-03-07T09:59:33.910Z,94989.06
2023-03-07T10:02:19.064Z,94988.59
2023-03-07T10:04:55.271Z,94985.53
2023-03-07T10:07:24.474Z,94984.47
2023-03-07T10:09:53.827Z,94983.66
2023-03-07T10:12:31.038Z,94983.34
2023-03-07T10:15:00.389Z,94985.66
2023-03-07T10:17:43.571Z,94988.09
2023-03-07T10:20:13.441Z,94987.78
2023-03-07T10:22:48.712Z,94989.72
2023-03-07T10:25:24.385Z,94982.50
2023-03-07T10:27:52.486Z,94983.50
2023-03-07T10:30:20.880Z,94981.16
2023-03-07T10:32:50.113Z,94976.56
2023-03-07T10:35:21.680Z,94988.97
2023-03-07T10:37:53.512Z,94981.59
2023-03-07T10:40:29.100Z,94973.22
2023-03-07T10:42:56.913Z,94973.06
2023-03-07T10:45:23.757Z,94975.09
2023-03-07T10:47:50.604Z,94968.13
2023-03-07T10:50:17.169Z,94968.50
2023-03-07T10:52:48.839Z,94961.09
2023-03-07T10:55:33.984Z,94957.97
2023-03-07T10:58:22.091Z,94954.16
2023-03-07T11:01:08.938Z,94946.09
2023-03-07T11:03:51.398Z,94939.00
2023-03-07T11:06:25.717Z,94943.09
2023-03-07T11:08:52.277Z,94943.63
2023-03-07T11:11:23.226Z,94931.59
2023-03-07T11:14:07.116Z,94933.75
2023-03-07T11:16:33.880Z,94932.19
2023-03-07T11:20:21.345Z,94934.94
2023-03-07T11:22:48.286Z,94929.97
2023-03-07T11:25:26.726Z,94926.97
2023-03-07T11:29:35.157Z,94921.06
2023-03-07T11:32:20.827Z,94920.91
2023-03-07T11:34:49.706Z,94919.94
2023-03-07T11:37:26.228Z,94903.97
2023-03-07T11:40:13.029Z,94906.78
2023-03-07T11:42:47.798Z,94908.97
2023-03-07T11:45:34.600Z,94901.84
2023-03-07T11:48:07.121Z,94895.59
2023-03-07T11:50:35.583Z,94894.06
2023-03-07T11:53:05.092Z,94885.72
2023-03-07T11:55:50.984Z,94887.25
2023-03-07T11:58:20.634Z,94883.34
2023-03-07T12:01:07.393Z,94884.94
2023-03-07T12:03:52.366Z,94882.69
2023-03-07T12:06:25.047Z,94888.22
2023-03-07T12:08:57.704Z,94875.75
2023-03-07T12:11:36.551Z,94874.22
2023-03-07T12:15:22.822Z,94868.63
2023-03-07T12:18:03.606Z,94874.94
2023-03-07T12:20:39.291Z,94874.88
2023-03-07T12:23:24.366Z,94863.75
2023-03-07T12:25:56.624Z,94869.13
2023-03-07T12:28:23.162Z,94867.94
2023-03-07T12:30:53.553Z,94867.63
2023-03-07T12:33:29.780Z,94856.94
2023-03-07T12:36:19.254Z,94848.34
2023-03-07T12:38:52.907Z,94850.16
2023-03-07T12:44:27.389Z,94840.34
2023-03-07T12:47:12.431Z,94838.16
2023-03-07T12:49:49.017Z,94838.69
2023-03-07T12:52:31.156Z,94839.97
2023-03-07T12:55:16.690Z,94838.69
2023-03-07T12:58:41.770Z,94835.06
2023-03-07T13:01:17.936Z,94834.75
2023-03-07T13:04:03.710Z,94830.66
2023-03-07T13:06:31.113Z,94824.06
2023-03-07T13:08:59.802Z,94823.75
2023-03-07T13:11:27.844Z,94828.59
2023-03-07T13:16:36.379Z,94818.66
2023-03-07T13:19:21.851Z,94819.69
2023-03-07T13:21:48.721Z,94816.69
2023-03-07T13:37:50.034Z,94786.81
2023-03-07T13:40:28.908Z,94788.75
2023-03-07T13:42:55.504Z,94788.66
2023-03-07T13:45:39.983Z,94788.34
2023-03-07T13:48:15.600Z,94787.16
2023-03-07T13:50:42.109Z,94794.75
2023-03-07T13:53:13.754Z,94783.38
2023-03-07T13:55:42.481Z,94776.94
2023-03-07T13:58:16.463Z,94774.31
2023-03-07T14:00:50.320Z,94775.00
2023-03-07T14:03:35.338Z,94781.88
2023-03-07T14:06:08.053Z,94776.00
2023-03-07T14:10:35.046Z,94768.88
2023-03-07T14:13:20.488Z,94771.88
2023-03-07T14:15:49.780Z,94757.38
2023-03-07T14:18:25.214Z,94761.19
2023-03-07T14:20:54.519Z,94759.56
2023-03-07T14:23:32.785Z,94752.66
2023-03-07T14:26:07.790Z,94756.06
2023-03-07T14:28:34.330Z,94754.44
2023-03-07T14:31:02.574Z,94751.34
2023-03-07T14:33:29.935Z,94757.59
2023-03-07T14:35:56.491Z,94754.31
2023-03-07T14:38:35.420Z,94748.06
2023-03-07T14:43:42.229Z,94736.88
2023-03-07T14:46:16.453Z,94731.75
2023-03-07T14:49:06.341Z,94730.94
2023-03-07T14:51:35.016Z,94734.72
2023-03-07T14:54:05.583Z,94723.88
2023-03-07T14:56:34.855Z,94721.06
2023-03-07T14:59:02.712Z,94715.47
2023-03-07T15:01:35.561Z,94716.94
2023-03-07T15:04:02.938Z,94720.22
2023-03-07T15:06:30.207Z,94712.16
2023-03-07T15:08:57.825Z,94713.16
2023-03-07T15:11:30.188Z,94715.63
2023-03-07T15:14:01.858Z,94712.66
2023-03-07T15:16:34.435Z,94705.75
2023-03-07T15:19:11.541Z,94708.06
2023-03-07T15:21:40.496Z,94710.00
2023-03-07T15:24:14.803Z,94709.03
2023-03-07T15:28:36.862Z,94703.59
2023-03-07T15:31:03.814Z,94702.63
2023-03-07T15:33:31.437Z,94692.59
2023-03-07T15:36:07.035Z,94682.91
2023-03-07T15:38:33.970Z,94679.13
2023-03-07T15:41:00.614Z,94684.50
2023-03-07T15:43:28.393Z,94680.00
2023-03-07T15:46:00.091Z,94669.66
2023-03-07T15:48:37.841Z,94669.22
2023-03-07T15:51:13.399Z,94663.47
2023-03-07T15:53:41.415Z,94665.44
2023-03-07T15:56:20.835Z,94660.53
2023-03-07T15:58:47.438Z,94654.59
2023-03-07T16:01:24.171Z,94650.97
2023-03-07T16:03:50.907Z,94654.59
2023-03-07T16:06:33.085Z,94653.09
2023-03-07T16:08:59.584Z,94651.97
2023-03-07T16:11:26.078Z,94649.66
2023-03-07T16:13:52.636Z,94652.28
2023-03-07T16:16:23.610Z,94654.25
2023-03-07T16:18:51.167Z,94659.84
2023-03-07T16:21:18.224Z,94651.16
2023-03-07T16:23:45.701Z,94654.59
2023-03-07T16:26:21.712Z,94655.91
2023-03-07T16:28:52.131Z,94651.97
2023-03-07T16:31:19.313Z,94651.00
2023-03-07T16:33:46.368Z,94660.19
2023-03-07T16:36:14.065Z,94655.56
2023-03-07T16:38:40.591Z,94652.94
2023-03-07T16:41:17.350Z,94654.94
2023-03-07T16:43:44.374Z,94652.63
2023-03-07T16:46:18.083Z,94649.16
2023-03-07T16:48:44.924Z,94652.78
2023-03-07T16:51:16.885Z,94658.53
2023-03-07T16:53:46.597Z,94653.94
2023-03-07T16:56:16.296Z,94651.78
2023-03-07T16:58:44.367Z,94650.97
2023-03-07T17:01:14.417Z,94646.34
2023-03-07T17:03:41.200Z,94647.38
2023-03-07T17:06:12.270Z,94645.38
2023-03-07T17:08:38.835Z,94645.38
2023-03-07T17:11:05.482Z,94644.72
2023-03-07T17:13:32.318Z,94648.34
2023-03-07T17:15:59.105Z,94643.25
2023-03-07T17:18:26.752Z,94659.50
2023-03-07T17:20:53.353Z,94653.44
2023-03-07T17:23:22.329Z,94654.25
2023-03-07T17:25:48.860Z,94649.66
2023-03-07T17:28:15.629Z,94652.13
2023-03-07T17:30:45.137Z,94647.53
2023-03-07T17:33:11.965Z,94651.94
2023-03-07T17:35:38.538Z,94652.63
2023-03-07T17:38:05.070Z,94648.34
2023-03-07T17:40:31.616Z,94652.13
2023-03-07T17:42:59.420Z,94652.63
2023-03-07T17:45:26.093Z,94656.88
2023-03-07T17:47:54.108Z,94649.81
2023-03-07T17:50:24.003Z,94647.19
2023-03-07T17:52:54.659Z,94654.94
2023-03-07T17:55:21.936Z,94652.63
2023-03-07T17:57:48.526Z,94647.53
2023-03-07T18:00:15.467Z,94655.25
2023-03-07T18:02:45.223Z,94649.00
2023-03-07T18:05:13.155Z,94646.34
2023-03-07T18:07:42.212Z,94658.06
2023-03-07T18:10:09.486Z,94655.56
2023-03-07T18:12:39.144Z,94650.28
2023-03-07T18:15:07.251Z,94641.25
2023-03-07T18:17:46.828Z,94644.56
2023-03-07T18:20:16.687Z,94647.03
2023-03-07T18:22:43.346Z,94647.19
2023-03-07T18:25:12.780Z,94650.00
2023-03-07T18:27:39.456Z,94643.25
2023-03-07T18:30:06.299Z,94655.25
2023-03-07T18:32:34.256Z,94655.91
2023-03-07T18:35:01.028Z,94646.34
2023-03-07T18:37:28.140Z,94652.13
2023-03-07T18:39:54.613Z,94650.81
2023-03-07T18:42:21.166Z,94661.34
2023-03-07T18:44:48.042Z,94648.00
2023-03-07T18:47:14.562Z,94653.09
2023-03-07T18:49:41.184Z,94659.56
2023-03-07T18:52:07.735Z,94649.03
2023-03-07T18:54:34.442Z,94654.59
2023-03-07T18:57:01.032Z,94649.66
2023-03-07T18:59:27.552Z,94651.47
2023-03-07T19:01:54.171Z,94646.22
2023-03-07T19:04:20.703Z,94643.72
2023-03-07T19:06:48.286Z,94649.31
2023-03-07T19:09:16.150Z,94644.22
2023-03-07T19:11:42.872Z,94653.94
2023-03-07T19:14:09.373Z,94656.41
2023-03-07T19:16:36.104Z,94658.69
2023-03-07T19:19:03.750Z,94661.84
2023-03-07T19:21:30.957Z,94662.66
2023-03-07T19:23:58.442Z,94657.88
2023-03-07T19:26:25.172Z,94653.59
2023-03-07T19:28:53.177Z,94648.34
2023-03-07T19:31:24.435Z,94653.44
2023-03-07T19:33:51.778Z,94658.88
2023-03-07T19:36:22.796Z,94661.66
2023-03-07T19:38:50.069Z,94668.59
2023-03-07T19:41:17.847Z,94667.75
2023-03-07T19:43:44.645Z,94672.03
2023-03-07T19:46:12.844Z,94671.22
2023-03-07T19:48:40.858Z,94670.22
2023-03-07T19:51:14.951Z,94664.28
2023-03-07T19:53:41.832Z,94672.50
2023-03-07T19:56:09.210Z,94668.72
2023-03-07T19:58:36.568Z,94670.53
2023-03-07T20:01:10.046Z,94676.78
2023-03-07T20:03:36.936Z,94676.94
2023-03-07T20:06:03.811Z,94673.34
2023-03-07T20:08:33.486Z,94671.84
2023-03-07T20:11:13.928Z,94677.28
2023-03-07T20:13:40.897Z,94676.59
2023-03-07T20:16:10.309Z,94672.63
2023-03-07T20:18:37.363Z,94679.56
2023-03-07T20:21:07.982Z,94679.88
2023-03-07T20:23:34.941Z,94670.50
2023-03-07T20:26:05.990Z,94680.88
2023-03-07T20:28:32.624Z,94680.84
2023-03-07T20:30:59.284Z,94681.81
2023-03-07T20:33:25.884Z,94689.06
2023-03-07T20:36:15.379Z,94690.19
2023-03-07T20:38:41.867Z,94682.59
2023-03-07T20:41:11.649Z,94685.25
2023-03-07T20:43:38.208Z,94689.19
2023-03-07T20:46:12.570Z,94693.13
2023-03-07T20:48:39.817Z,94694.41
2023-03-07T20:51:07.210Z,94694.09
2023-03-07T20:53:34.009Z,94697.88
2023-03-07T20:56:04.984Z,94708.22
2023-03-07T20:58:32.170Z,94705.44
2023-03-07T21:00:59.301Z,94703.13
2023-03-07T21:03:26.391Z,94704.41
2023-03-07T21:05:53.853Z,94697.66
2023-03-07T21:08:20.439Z,94699.09
2023-03-07T21:10:46.956Z,94711.59
2023-03-07T21:13:13.519Z,94717.16
2023-03-07T21:15:42.686Z,94720.78
2023-03-07T21:18:09.365Z,94722.88
2023-03-07T21:20:38.980Z,94726.00
2023-03-07T21:23:05.457Z,94724.06
2023-03-07T21:25:31.961Z,94712.16
2023-03-07T21:27:58.544Z,94718.22
2023-03-07T21:30:25.061Z,94712.75
2023-03-07T21:34:41.310Z,94715.66
2023-03-07T21:37:07.830Z,94710.63
2023-03-07T21:39:34.519Z,94714.69
2023-03-07T21:43:26.148Z,94712.22
2023-03-07T21:45:52.780Z,94713.72
2023-03-07T21:48:19.511Z,94707.44
2023-03-07T21:50:47.376Z,94713.47
2023-03-07T21:53:13.923Z,94710.00
2023-03-07T21:55:40.436Z,94713.41
2023-03-07T21:58:07.039Z,94712.88
2023-03-07T22:00:33.557Z,94715.97
2023-03-07T22:05:39.413Z,94708.16
2023-03-07T22:08:06.028Z,94714.56
2023-03-07T22:10:33.106Z,94711.28
2023-03-07T22:12:59.632Z,94711.41
2023-03-07T22:15:26.263Z,94706.97
2023-03-07T22:17:52.836Z,94704.50
2023-03-07T22:20:19.400Z,94710.78
2023-03-07T22:22:45.956Z,94706.16
2023-03-07T22:25:12.569Z,94703.97
2023-03-07T22:27:39.088Z,94702.47
2023-03-07T22:30:06.620Z,94696.56
2023-03-07T22:32:33.198Z,94701.97
2023-03-07T22:37:30.377Z,94710.97
2023-03-07T22:39:56.872Z,94714.56
2023-03-07T22:42:23.438Z,94704.38
2023-03-07T22:44:49.929Z,94702.41
2023-03-07T22:47:16.533Z,94704.69
2023-03-07T22:49:43.030Z,94701.69
2023-03-07T22:54:49.377Z,94695.38
2023-03-07T22:57:15.922Z,94692.09
2023-03-07T22:59:42.429Z,94699.16
2023-03-07T23:04:40.617Z,94708.16
2023-03-07T23:07:07.173Z,94710.47
2023-03-07T23:09:33.718Z,94709.50
2023-03-07T23:12:00.292Z,94709.84
2023-03-07T23:14:26.867Z,94708.22
2023-03-07T23:16:53.388Z,94703.63
2023-03-07T23:19:20.064Z,94704.31
2023-03-07T23:21:47.173Z,94698.38
2023-03-07T23:26:53.718Z,94706.41
2023-03-07T23:29:20.224Z,94709.19
2023-03-07T23:31:46.806Z,94704.25
2023-03-07T23:34:17.750Z,94723.44
2023-03-07T23:36:44.679Z,94727.19
2023-03-07T23:39:11.967Z,94715.88
2023-03-07T23:41:38.449Z,94712.28
2023-03-07T23:44:05.149Z,94716.38
2023-03-07T23:46:31.800Z,94717.88
2023-03-07T23:48:58.403Z,94716.09
2023-03-07T23:51:25.473Z,94710.84
2023-03-07T23:53:51.991Z,94709.72
2023-03-07T23:57:34.344Z,94715.03
